Weather at Mc Creless Farm Airport [CLOSED]

Public forecast

Using degrees Fahrenheit for public forecast. Weather courtesy of forecast.io.

Closest aviation weather report (METAR) to Mc Creless Farm Airport

Closest report is Randolph Air Force Base, 9.8 nm (18.2 km) NNW.

2024/07/22 22:55 (retrieved 31 minutes ago)

KRND 222255Z AUTO 12012KT 10SM FEW140 31/23 A2989 RMK AO2 SLP112 T03090227

Closest aviation forecast (TAF) to Mc Creless Farm Airport

Closest forecast is Randolph Air Force Base, 9.8 nm (18.2 km) NNW.

2024/07/22 21:48 Ammendment (retrieved 2 hours ago)

AMD KRND 222140Z 2221/2322 16012G20KT 9999 VCTS SCT030CB BKN050 BKN100 QNH2987INS TEMPO 2222/2224 VRB15G35KT 3200 TSRAGR BKN025CB BKN040 OVC100 BECMG 2304/2305 03009KT 9999 NSW BKN030 BKN070 QNH2996INS BECMG 2311/2312 VRB06KT 9999 BKN015 OVC050 QNH2999INS TEMPO 2312/2314 BKN007 BECMG 2314/2315 07006KT 6000 -SHRA FEW012 BKN020 QNH2996INS TEMPO 2314/2320 20020G30KT 6000 -TSRA BKN012CB BKN020 BECMG 2320/2321 07012KT 9000 -SHRA BKN025 BKN040 QNH2995INS TX33/2221Z TN24/2311Z LAST NO AMDS AFT 2300 NEXT 231